sensor_id;sensor_type;location;lat;lon;timestamp;pressure;altitude;pressure_sealevel;temperature;humidity
66430;BME280;53242;51.694;10.006;2023-07-31T00:00:34;99127.84;;;16.92;77.22
66430;BME280;53242;51.694;10.006;2023-07-31T00:02:56;99128.81;;;17.03;76.43
66430;BME280;53242;51.694;10.006;2023-07-31T00:05:18;99116.94;;;16.76;78.66
66430;BME280;53242;51.694;10.006;2023-07-31T00:07:41;99114.66;;;16.85;79.03
66430;BME280;53242;51.694;10.006;2023-07-31T00:10:03;99113.56;;;16.64;82.00
66430;BME280;53242;51.694;10.006;2023-07-31T00:12:26;99103.81;;;16.53;82.09
66430;BME280;53242;51.694;10.006;2023-07-31T00:14:48;99113.06;;;16.67;82.13
66430;BME280;53242;51.694;10.006;2023-07-31T00:17:11;99103.16;;;16.46;83.19
66430;BME280;53242;51.694;10.006;2023-07-31T00:19:33;99103.16;;;16.46;83.44
66430;BME280;53242;51.694;10.006;2023-07-31T00:21:56;99090.47;;;16.53;83.46
66430;BME280;53242;51.694;10.006;2023-07-31T00:24:18;99094.44;;;16.33;84.30
66430;BME280;53242;51.694;10.006;2023-07-31T00:26:41;99085.78;;;16.43;83.71
66430;BME280;53242;51.694;10.006;2023-07-31T00:29:03;99083.31;;;16.36;85.07
66430;BME280;53242;51.694;10.006;2023-07-31T00:31:26;99080.56;;;16.31;85.47
66430;BME280;53242;51.694;10.006;2023-07-31T00:33:49;99076.13;;;16.20;86.64
66430;BME280;53242;51.694;10.006;2023-07-31T00:36:11;99085.31;;;16.29;86.18
66430;BME280;53242;51.694;10.006;2023-07-31T00:38:33;99080.22;;;16.10;87.96
66430;BME280;53242;51.694;10.006;2023-07-31T00:40:56;99072.25;;;16.27;86.82
66430;BME280;53242;51.694;10.006;2023-07-31T00:43:18;99064.91;;;16.18;87.64
66430;BME280;53242;51.694;10.006;2023-07-31T00:45:41;99068.63;;;16.17;87.33
66430;BME280;53242;51.694;10.006;2023-07-31T00:48:04;99060.22;;;16.25;87.96
66430;BME280;53242;51.694;10.006;2023-07-31T00:50:28;99052.97;;;16.37;86.52
66430;BME280;53242;51.694;10.006;2023-07-31T00:52:51;99051.69;;;16.23;87.74
66430;BME280;53242;51.694;10.006;2023-07-31T00:55:14;99043.44;;;16.24;87.34
66430;BME280;53242;51.694;10.006;2023-07-31T00:57:38;99047.41;;;16.22;87.46
66430;BME280;53242;51.694;10.006;2023-07-31T01:00:02;99051.81;;;16.16;87.81
66430;BME280;53242;51.694;10.006;2023-07-31T01:02:25;99041.91;;;16.11;88.15
66430;BME280;53242;51.694;10.006;2023-07-31T01:04:48;99033.59;;;16.08;88.78
66430;BME280;53242;51.694;10.006;2023-07-31T01:07:11;99035.47;;;16.24;87.48
66430;BME280;53242;51.694;10.006;2023-07-31T01:09:52;99036.50;;;16.06;90.51
66430;BME280;53242;51.694;10.006;2023-07-31T01:12:19;99029.31;;;16.07;89.59
66430;BME280;53242;51.694;10.006;2023-07-31T01:15:11;99032.47;;;16.04;91.20
66430;BME280;53242;51.694;10.006;2023-07-31T01:17:34;99021.84;;;16.04;90.04
66430;BME280;53242;51.694;10.006;2023-07-31T01:19:59;99016.97;;;16.01;90.28
66430;BME280;53242;51.694;10.006;2023-07-31T01:22:35;99009.41;;;16.09;90.61
66430;BME280;53242;51.694;10.006;2023-07-31T01:27:44;99001.81;;;16.18;89.66
66430;BME280;53242;51.694;10.006;2023-07-31T01:30:11;99000.53;;;16.21;88.68
66430;BME280;53242;51.694;10.006;2023-07-31T01:32:40;99002.88;;;16.17;89.10
66430;BME280;53242;51.694;10.006;2023-07-31T01:35:04;99001.91;;;16.06;89.93
66430;BME280;53242;51.694;10.006;2023-07-31T01:37:30;98993.84;;;16.01;90.13
66430;BME280;53242;51.694;10.006;2023-07-31T01:39:53;98994.97;;;16.05;89.52
66430;BME280;53242;51.694;10.006;2023-07-31T01:42:15;98978.44;;;16.20;88.73
66430;BME280;53242;51.694;10.006;2023-07-31T01:44:39;98977.44;;;16.26;88.23
66430;BME280;53242;51.694;10.006;2023-07-31T01:47:02;98973.53;;;16.34;87.43
66430;BME280;53242;51.694;10.006;2023-07-31T01:49:24;98975.53;;;16.22;87.70
66430;BME280;53242;51.694;10.006;2023-07-31T01:51:47;98971.31;;;16.26;87.40
66430;BME280;53242;51.694;10.006;2023-07-31T01:54:09;98970.81;;;16.29;87.73
66430;BME280;53242;51.694;10.006;2023-07-31T01:56:33;98974.03;;;16.31;87.28
66430;BME280;53242;51.694;10.006;2023-07-31T01:58:55;98970.75;;;16.24;87.31
66430;BME280;53242;51.694;10.006;2023-07-31T02:01:18;98964.94;;;16.27;87.61
66430;BME280;53242;51.694;10.006;2023-07-31T02:03:41;98953.78;;;16.30;87.53
66430;BME280;53242;51.694;10.006;2023-07-31T02:06:04;98960.97;;;16.30;87.72
66430;BME280;53242;51.694;10.006;2023-07-31T02:08:26;98958.66;;;16.33;86.67
66430;BME280;53242;51.694;10.006;2023-07-31T02:10:49;98957.09;;;16.37;86.72
66430;BME280;53242;51.694;10.006;2023-07-31T02:13:11;98946.78;;;16.24;87.98
66430;BME280;53242;51.694;10.006;2023-07-31T02:15:34;98945.81;;;16.30;87.24
66430;BME280;53242;51.694;10.006;2023-07-31T02:17:58;98950.78;;;16.43;86.53
66430;BME280;53242;51.694;10.006;2023-07-31T02:20:21;98944.09;;;16.41;86.25
66430;BME280;53242;51.694;10.006;2023-07-31T02:22:44;98944.81;;;16.36;86.76
66430;BME280;53242;51.694;10.006;2023-07-31T02:25:06;98945.31;;;16.33;86.73
66430;BME280;53242;51.694;10.006;2023-07-31T02:27:29;98938.28;;;16.44;86.08
66430;BME280;53242;51.694;10.006;2023-07-31T02:29:52;98946.91;;;16.51;85.78
66430;BME280;53242;51.694;10.006;2023-07-31T02:32:14;98941.50;;;16.46;85.88
66430;BME280;53242;51.694;10.006;2023-07-31T02:34:36;98937.69;;;16.42;86.33
66430;BME280;53242;51.694;10.006;2023-07-31T02:36:59;98932.63;;;16.40;86.11
66430;BME280;53242;51.694;10.006;2023-07-31T02:39:22;98935.59;;;16.44;85.71
66430;BME280;53242;51.694;10.006;2023-07-31T02:41:44;98937.53;;;16.49;86.05
66430;BME280;53242;51.694;10.006;2023-07-31T02:44:07;98931.13;;;16.50;85.58
66430;BME280;53242;51.694;10.006;2023-07-31T02:46:29;98933.25;;;16.48;85.66
66430;BME280;53242;51.694;10.006;2023-07-31T02:48:51;98926.50;;;16.40;86.00
66430;BME280;53242;51.694;10.006;2023-07-31T02:51:14;98928.25;;;16.51;85.40
66430;BME280;53242;51.694;10.006;2023-07-31T02:53:36;98926.63;;;16.50;85.21
66430;BME280;53242;51.694;10.006;2023-07-31T02:55:59;98927.22;;;16.57;85.24
66430;BME280;53242;51.694;10.006;2023-07-31T02:58:21;98929.56;;;16.49;85.84
66430;BME280;53242;51.694;10.006;2023-07-31T03:00:44;98930.59;;;16.48;85.54
66430;BME280;53242;51.694;10.006;2023-07-31T03:03:06;98934.13;;;16.53;85.91
66430;BME280;53242;51.694;10.006;2023-07-31T03:05:29;98936.19;;;16.29;87.02
66430;BME280;53242;51.694;10.006;2023-07-31T03:07:51;98932.22;;;16.49;86.37
66430;BME280;53242;51.694;10.006;2023-07-31T03:10:14;98921.78;;;16.47;86.44
66430;BME280;53242;51.694;10.006;2023-07-31T03:12:37;98925.41;;;16.58;86.27
66430;BME280;53242;51.694;10.006;2023-07-31T03:15:00;98930.59;;;16.48;86.90
66430;BME280;53242;51.694;10.006;2023-07-31T03:17:23;98929.09;;;16.35;87.79
66430;BME280;53242;51.694;10.006;2023-07-31T03:19:45;98925.75;;;16.44;87.34
66430;BME280;53242;51.694;10.006;2023-07-31T03:22:08;98919.56;;;16.39;87.55
66430;BME280;53242;51.694;10.006;2023-07-31T03:24:30;98920.13;;;16.41;87.57
66430;BME280;53242;51.694;10.006;2023-07-31T03:26:52;98927.56;;;16.39;88.27
66430;BME280;53242;51.694;10.006;2023-07-31T03:29:15;98923.53;;;16.36;88.25
66430;BME280;53242;51.694;10.006;2023-07-31T03:31:37;98922.72;;;16.36;88.42
66430;BME280;53242;51.694;10.006;2023-07-31T03:34:00;98916.91;;;16.39;88.78
66430;BME280;53242;51.694;10.006;2023-07-31T03:36:23;98912.38;;;16.39;88.34
66430;BME280;53242;51.694;10.006;2023-07-31T03:38:46;98921.19;;;16.40;88.50
66430;BME280;53242;51.694;10.006;2023-07-31T03:41:08;98925.75;;;16.44;88.14
66430;BME280;53242;51.694;10.006;2023-07-31T03:43:32;98930.66;;;16.31;88.92
66430;BME280;53242;51.694;10.006;2023-07-31T03:45:55;98914.56;;;16.42;88.05
66430;BME280;53242;51.694;10.006;2023-07-31T03:48:18;98915.03;;;16.39;88.42
66430;BME280;53242;51.694;10.006;2023-07-31T03:50:40;98920.66;;;16.43;87.96
66430;BME280;53242;51.694;10.006;2023-07-31T03:53:03;98916.66;;;16.40;88.13
66430;BME280;53242;51.694;10.006;2023-07-31T03:55:25;98919.94;;;16.48;87.82
66430;BME280;53242;51.694;10.006;2023-07-31T03:57:48;98922.03;;;16.46;87.87
66430;BME280;53242;51.694;10.006;2023-07-31T04:00:10;98920.19;;;16.46;87.57
66430;BME280;53242;51.694;10.006;2023-07-31T04:02:37;98928.41;;;16.44;87.65
66430;BME280;53242;51.694;10.006;2023-07-31T04:04:59;98927.75;;;16.54;87.55
66430;BME280;53242;51.694;10.006;2023-07-31T04:07:22;98931.06;;;16.44;88.21
66430;BME280;53242;51.694;10.006;2023-07-31T04:09:44;98932.22;;;16.49;87.78
66430;BME280;53242;51.694;10.006;2023-07-31T04:12:07;98929.78;;;16.47;87.82
66430;BME280;53242;51.694;10.006;2023-07-31T04:14:29;98937.41;;;16.60;87.54
66430;BME280;53242;51.694;10.006;2023-07-31T04:16:52;98930.09;;;16.51;87.87
66430;BME280;53242;51.694;10.006;2023-07-31T04:19:14;98929.03;;;16.52;87.75
66430;BME280;53242;51.694;10.006;2023-07-31T04:21:38;98924.28;;;16.54;88.59
66430;BME280;53242;51.694;10.006;2023-07-31T04:24:00;98933.13;;;16.59;87.94
66430;BME280;53242;51.694;10.006;2023-07-31T04:26:23;98937.16;;;16.62;87.74
66430;BME280;53242;51.694;10.006;2023-07-31T04:28:45;98935.84;;;16.65;87.52
66430;BME280;53242;51.694;10.006;2023-07-31T04:31:08;98931.31;;;16.65;87.41
66430;BME280;53242;51.694;10.006;2023-07-31T04:33:31;98937.41;;;16.60;87.31
66430;BME280;53242;51.694;10.006;2023-07-31T04:35:53;98939.56;;;16.64;87.25
66430;BME280;53242;51.694;10.006;2023-07-31T04:38:16;98939.63;;;16.69;86.74
66430;BME280;53242;51.694;10.006;2023-07-31T04:40:38;98939.63;;;16.69;86.82
66430;BME280;53242;51.694;10.006;2023-07-31T04:43:01;98939.56;;;16.64;87.12
66430;BME280;53242;51.694;10.006;2023-07-31T04:45:23;98945.53;;;16.71;87.23
66430;BME280;53242;51.694;10.006;2023-07-31T04:47:46;98951.13;;;16.69;87.34
66430;BME280;53242;51.694;10.006;2023-07-31T04:50:08;98943.66;;;16.71;86.88
66430;BME280;53242;51.694;10.006;2023-07-31T04:52:31;98937.28;;;16.72;86.76
66430;BME280;53242;51.694;10.006;2023-07-31T04:54:53;98937.28;;;16.72;86.58
66430;BME280;53242;51.694;10.006;2023-07-31T04:57:16;98956.19;;;16.71;86.65
66430;BME280;53242;51.694;10.006;2023-07-31T04:59:38;98946.50;;;16.87;86.10
66430;BME280;53242;51.694;10.006;2023-07-31T05:02:01;98947.44;;;16.75;86.70
66430;BME280;53242;51.694;10.006;2023-07-31T05:04:23;98949.56;;;16.73;86.77
66430;BME280;53242;51.694;10.006;2023-07-31T05:06:45;98951.25;;;16.80;86.25
66430;BME280;53242;51.694;10.006;2023-07-31T05:09:08;98946.03;;;16.90;85.74
66430;BME280;53242;51.694;10.006;2023-07-31T05:11:31;98944.97;;;16.91;85.58
66430;BME280;53242;51.694;10.006;2023-07-31T05:13:54;98933.63;;;16.79;86.22
66430;BME280;53242;51.694;10.006;2023-07-31T05:16:16;98939.16;;;16.94;85.69
66430;BME280;53242;51.694;10.006;2023-07-31T05:18:39;98938.25;;;16.88;85.68
66430;BME280;53242;51.694;10.006;2023-07-31T05:21:01;98939.97;;;16.95;85.57
66430;BME280;53242;51.694;10.006;2023-07-31T05:23:24;98941.81;;;16.94;85.63
66430;BME280;53242;51.694;10.006;2023-07-31T05:25:46;98940.69;;;16.90;85.58
66430;BME280;53242;51.694;10.006;2023-07-31T05:28:09;98932.22;;;16.93;85.22
66430;BME280;53242;51.694;10.006;2023-07-31T05:30:31;98949.00;;;16.93;85.09
66430;BME280;53242;51.694;10.006;2023-07-31T05:32:53;98937.19;;;16.89;84.98
66430;BME280;53242;51.694;10.006;2023-07-31T05:35:16;98953.03;;;16.96;84.83
66430;BME280;53242;51.694;10.006;2023-07-31T05:37:38;98950.78;;;16.88;85.10
66430;BME280;53242;51.694;10.006;2023-07-31T05:40:01;98942.78;;;16.88;84.78
66430;BME280;53242;51.694;10.006;2023-07-31T05:42:23;98953.44;;;16.88;84.62
66430;BME280;53242;51.694;10.006;2023-07-31T05:44:46;98935.06;;;16.86;84.01
66430;BME280;53242;51.694;10.006;2023-07-31T05:47:09;98942.88;;;16.93;83.45
66430;BME280;53242;51.694;10.006;2023-07-31T05:49:31;98935.94;;;16.92;82.95
66430;BME280;53242;51.694;10.006;2023-07-31T05:51:54;98941.31;;;16.97;82.54
66430;BME280;53242;51.694;10.006;2023-07-31T05:54:16;98937.16;;;17.06;81.86
66430;BME280;53242;51.694;10.006;2023-07-31T05:56:39;98945.16;;;17.06;81.48
66430;BME280;53242;51.694;10.006;2023-07-31T05:59:01;98947.31;;;17.09;81.84
66430;BME280;53242;51.694;10.006;2023-07-31T06:01:25;98944.28;;;17.01;81.17
66430;BME280;53242;51.694;10.006;2023-07-31T06:03:47;98944.72;;;17.15;80.40
66430;BME280;53242;51.694;10.006;2023-07-31T06:06:10;98943.84;;;17.09;80.67
66430;BME280;53242;51.694;10.006;2023-07-31T06:08:33;98946.59;;;17.19;80.47
66430;BME280;53242;51.694;10.006;2023-07-31T06:10:55;98942.63;;;17.22;80.14
66430;BME280;53242;51.694;10.006;2023-07-31T06:13:18;98944.72;;;17.15;80.08
66430;BME280;53242;51.694;10.006;2023-07-31T06:15:40;98942.59;;;17.17;79.83
66430;BME280;53242;51.694;10.006;2023-07-31T06:18:02;98943.09;;;17.14;79.77
66430;BME280;53242;51.694;10.006;2023-07-31T06:20:25;98936.75;;;17.20;80.05
66430;BME280;53242;51.694;10.006;2023-07-31T06:22:47;98938.47;;;17.31;79.63
66430;BME280;53242;51.694;10.006;2023-07-31T06:25:11;98935.16;;;17.19;79.90
66430;BME280;53242;51.694;10.006;2023-07-31T06:27:34;98933.59;;;17.23;79.57
66430;BME280;53242;51.694;10.006;2023-07-31T06:29:56;98935.25;;;17.29;79.36
66430;BME280;53242;51.694;10.006;2023-07-31T06:32:18;98938.28;;;17.38;78.92
66430;BME280;53242;51.694;10.006;2023-07-31T06:34:41;98941.56;;;17.50;78.68
66430;BME280;53242;51.694;10.006;2023-07-31T06:37:03;98935.16;;;17.51;77.74
66430;BME280;53242;51.694;10.006;2023-07-31T06:39:26;98930.19;;;17.60;77.27
66430;BME280;53242;51.694;10.006;2023-07-31T06:41:48;98938.66;;;17.52;77.51
66430;BME280;53242;51.694;10.006;2023-07-31T06:44:11;98936.00;;;17.52;77.60
66430;BME280;53242;51.694;10.006;2023-07-31T06:46:33;98932.28;;;17.58;77.75
66430;BME280;53242;51.694;10.006;2023-07-31T06:48:55;98929.34;;;17.54;77.26
66430;BME280;53242;51.694;10.006;2023-07-31T06:51:18;98927.69;;;17.48;76.67
66430;BME280;53242;51.694;10.006;2023-07-31T06:53:40;98940.03;;;17.54;76.50
66430;BME280;53242;51.694;10.006;2023-07-31T06:56:03;98932.50;;;17.51;76.55
66430;BME280;53242;51.694;10.006;2023-07-31T06:58:26;98937.09;;;17.56;76.37
66430;BME280;53242;51.694;10.006;2023-07-31T07:00:48;98939.50;;;17.57;76.27
66430;BME280;53242;51.694;10.006;2023-07-31T07:03:13;98930.19;;;17.60;76.36
66430;BME280;53242;51.694;10.006;2023-07-31T07:05:37;98929.13;;;17.61;76.21
66430;BME280;53242;51.694;10.006;2023-07-31T07:07:59;98931.63;;;17.73;76.28
66430;BME280;53242;51.694;10.006;2023-07-31T07:10:21;98920.16;;;17.72;76.46
66430;BME280;53242;51.694;10.006;2023-07-31T07:12:44;98919.84;;;17.69;76.38
66430;BME280;53242;51.694;10.006;2023-07-31T07:15:06;98912.13;;;17.72;76.03
66430;BME280;53242;51.694;10.006;2023-07-31T07:17:30;98920.97;;;17.78;75.78
66430;BME280;53242;51.694;10.006;2023-07-31T07:19:55;98923.16;;;17.86;75.62
66430;BME280;53242;51.694;10.006;2023-07-31T07:22:18;98908.19;;;17.80;75.83
66430;BME280;53242;51.694;10.006;2023-07-31T07:24:41;98918.34;;;17.83;76.07
66430;BME280;53242;51.694;10.006;2023-07-31T07:27:04;98914.31;;;17.81;76.00
66430;BME280;53242;51.694;10.006;2023-07-31T07:29:26;98923.72;;;17.88;76.07
66430;BME280;53242;51.694;10.006;2023-07-31T07:31:49;98917.31;;;17.89;75.80
66430;BME280;53242;51.694;10.006;2023-07-31T07:34:11;98913.31;;;17.87;76.33
66430;BME280;53242;51.694;10.006;2023-07-31T07:36:34;98912.34;;;17.98;75.69
66430;BME280;53242;51.694;10.006;2023-07-31T07:38:56;98909.38;;;17.95;75.46
66430;BME280;53242;51.694;10.006;2023-07-31T07:41:19;98920.63;;;18.02;75.58
66430;BME280;53242;51.694;10.006;2023-07-31T07:43:42;98911.59;;;18.08;75.38
66430;BME280;53242;51.694;10.006;2023-07-31T07:46:04;98909.22;;;18.12;75.78
66430;BME280;53242;51.694;10.006;2023-07-31T07:48:27;98908.41;;;18.11;74.98
66430;BME280;53242;51.694;10.006;2023-07-31T07:50:49;98907.34;;;18.17;75.26
66430;BME280;53242;51.694;10.006;2023-07-31T07:53:11;98904.22;;;18.26;75.33
66430;BME280;53242;51.694;10.006;2023-07-31T07:55:35;98905.19;;;18.09;75.75
66430;BME280;53242;51.694;10.006;2023-07-31T07:57:57;98908.88;;;18.03;76.14
66430;BME280;53242;51.694;10.006;2023-07-31T08:00:20;98915.81;;;17.99;76.60
66430;BME280;53242;51.694;10.006;2023-07-31T08:02:42;98907.50;;;17.95;76.67
66430;BME280;53242;51.694;10.006;2023-07-31T08:05:05;98900.16;;;18.13;76.67
66430;BME280;53242;51.694;10.006;2023-07-31T08:07:27;98902.56;;;18.19;76.65
66430;BME280;53242;51.694;10.006;2023-07-31T08:09:50;98909.91;;;18.39;76.11
66430;BME280;53242;51.694;10.006;2023-07-31T08:12:12;98902.56;;;18.14;77.34
66430;BME280;53242;51.694;10.006;2023-07-31T08:14:34;98898.88;;;18.26;77.29
66430;BME280;53242;51.694;10.006;2023-07-31T08:16:58;98901.22;;;18.17;78.42
66430;BME280;53242;51.694;10.006;2023-07-31T08:19:20;98911.22;;;18.37;77.98
66430;BME280;53242;51.694;10.006;2023-07-31T08:21:42;98905.56;;;18.28;78.01
66430;BME280;53242;51.694;10.006;2023-07-31T08:24:05;98898.53;;;18.12;78.69
66430;BME280;53242;51.694;10.006;2023-07-31T08:26:27;98902.84;;;18.18;79.20
66430;BME280;53242;51.694;10.006;2023-07-31T08:28:50;98905.00;;;18.26;78.99
66430;BME280;53242;51.694;10.006;2023-07-31T08:31:12;98904.22;;;18.26;78.78
66430;BME280;53242;51.694;10.006;2023-07-31T08:33:35;98907.09;;;18.14;78.97
66430;BME280;53242;51.694;10.006;2023-07-31T08:35:57;98906.34;;;18.29;79.03
66430;BME280;53242;51.694;10.006;2023-07-31T08:38:19;98901.09;;;17.96;80.28
66430;BME280;53242;51.694;10.006;2023-07-31T08:40:42;98901.97;;;18.07;80.44
66430;BME280;53242;51.694;10.006;2023-07-31T08:43:04;98902.16;;;17.95;81.50
66430;BME280;53242;51.694;10.006;2023-07-31T08:45:28;98902.44;;;17.94;82.51
66430;BME280;53242;51.694;10.006;2023-07-31T08:47:52;98905.53;;;17.80;83.79
66430;BME280;53242;51.694;10.006;2023-07-31T08:50:18;98899.41;;;17.85;85.36
66430;BME280;53242;51.694;10.006;2023-07-31T08:52:41;98886.63;;;17.87;84.62
66430;BME280;53242;51.694;10.006;2023-07-31T08:55:04;98876.31;;;18.01;84.67
66430;BME280;53242;51.694;10.006;2023-07-31T08:57:27;98882.50;;;18.12;84.26
66430;BME280;53242;51.694;10.006;2023-07-31T08:59:51;98878.22;;;18.11;84.83
66430;BME280;53242;51.694;10.006;2023-07-31T09:02:15;98878.59;;;17.87;85.07
66430;BME280;53242;51.694;10.006;2023-07-31T09:04:37;98874.34;;;17.91;84.42
66430;BME280;53242;51.694;10.006;2023-07-31T09:07:02;98866.03;;;17.87;84.46
66430;BME280;53242;51.694;10.006;2023-07-31T09:09:26;98861.94;;;17.69;85.40
66430;BME280;53242;51.694;10.006;2023-07-31T09:11:49;98857.75;;;17.84;85.06
66430;BME280;53242;51.694;10.006;2023-07-31T09:14:12;98855.06;;;17.84;86.21
66430;BME280;53242;51.694;10.006;2023-07-31T09:16:51;98854.22;;;17.73;86.28
66430;BME280;53242;51.694;10.006;2023-07-31T09:19:25;98848.59;;;17.69;86.42
66430;BME280;53242;51.694;10.006;2023-07-31T09:21:48;98841.44;;;17.75;86.49
66430;BME280;53242;51.694;10.006;2023-07-31T09:24:25;98825.31;;;18.02;85.79
66430;BME280;53242;51.694;10.006;2023-07-31T09:26:53;98833.84;;;17.99;85.83
66430;BME280;53242;51.694;10.006;2023-07-31T09:29:19;98823.72;;;18.06;85.27
66430;BME280;53242;51.694;10.006;2023-07-31T09:31:42;98817.13;;;18.24;84.16
66430;BME280;53242;51.694;10.006;2023-07-31T09:34:05;98816.06;;;18.20;84.00
66430;BME280;53242;51.694;10.006;2023-07-31T09:36:30;98818.22;;;18.34;83.19
66430;BME280;53242;51.694;10.006;2023-07-31T09:38:53;98819.91;;;18.55;82.35
66430;BME280;53242;51.694;10.006;2023-07-31T09:41:16;98813.94;;;18.28;82.76
66430;BME280;53242;51.694;10.006;2023-07-31T09:43:38;98821.22;;;18.48;82.72
66430;BME280;53242;51.694;10.006;2023-07-31T09:46:00;98802.22;;;18.44;82.10
66430;BME280;53242;51.694;10.006;2023-07-31T09:48:24;98819.38;;;18.59;81.28
66430;BME280;53242;51.694;10.006;2023-07-31T09:50:49;98817.50;;;18.54;80.69
66430;BME280;53242;51.694;10.006;2023-07-31T09:53:12;98819.94;;;18.76;79.87
66430;BME280;53242;51.694;10.006;2023-07-31T09:55:35;98810.13;;;18.92;80.23
66430;BME280;53242;51.694;10.006;2023-07-31T09:57:58;98815.19;;;19.09;79.31
66430;BME280;53242;51.694;10.006;2023-07-31T10:00:21;98810.38;;;18.96;77.99
66430;BME280;53242;51.694;10.006;2023-07-31T10:02:47;98813.31;;;18.94;78.24
66430;BME280;53242;51.694;10.006;2023-07-31T10:05:13;98804.78;;;18.97;77.66
66430;BME280;53242;51.694;10.006;2023-07-31T10:07:38;98813.03;;;19.01;77.59
66430;BME280;53242;51.694;10.006;2023-07-31T10:10:01;98806.63;;;18.97;77.51
66430;BME280;53242;51.694;10.006;2023-07-31T10:12:27;98799.16;;;18.94;77.51
66430;BME280;53242;51.694;10.006;2023-07-31T10:14:54;98791.66;;;19.06;77.66
66430;BME280;53242;51.694;10.006;2023-07-31T10:17:17;98797.81;;;18.96;77.73
66430;BME280;53242;51.694;10.006;2023-07-31T10:19:40;98798.84;;;18.85;77.69
66430;BME280;53242;51.694;10.006;2023-07-31T10:22:04;98787.13;;;19.01;77.45
66430;BME280;53242;51.694;10.006;2023-07-31T10:24:27;98794.03;;;18.87;78.34
66430;BME280;53242;51.694;10.006;2023-07-31T10:26:51;98787.06;;;18.76;78.34
66430;BME280;53242;51.694;10.006;2023-07-31T10:29:14;98802.31;;;18.80;78.28
66430;BME280;53242;51.694;10.006;2023-07-31T10:31:37;98798.28;;;18.78;78.91
66430;BME280;53242;51.694;10.006;2023-07-31T10:34:00;98801.81;;;18.99;79.19
66430;BME280;53242;51.694;10.006;2023-07-31T10:36:25;98780.94;;;19.06;79.34
66430;BME280;53242;51.694;10.006;2023-07-31T10:38:51;98786.28;;;19.06;79.24
66430;BME280;53242;51.694;10.006;2023-07-31T10:41:13;98780.94;;;19.06;78.78
66430;BME280;53242;51.694;10.006;2023-07-31T10:43:36;98780.16;;;19.11;78.72
66430;BME280;53242;51.694;10.006;2023-07-31T10:45:59;98785.22;;;19.12;77.98
66430;BME280;53242;51.694;10.006;2023-07-31T10:48:22;98781.22;;;19.15;77.71
66430;BME280;53242;51.694;10.006;2023-07-31T10:50:49;98788.16;;;19.26;76.09
66430;BME280;53242;51.694;10.006;2023-07-31T10:53:32;98793.22;;;19.43;75.91
66430;BME280;53242;51.694;10.006;2023-07-31T10:55:58;98799.59;;;19.63;73.90
66430;BME280;53242;51.694;10.006;2023-07-31T10:58:21;98785.09;;;19.95;73.63
66430;BME280;53242;51.694;10.006;2023-07-31T11:00:45;98770.91;;;19.99;73.26
66430;BME280;53242;51.694;10.006;2023-07-31T11:03:16;98778.31;;;20.13;72.46
66430;BME280;53242;51.694;10.006;2023-07-31T11:10:38;98768.13;;;20.65;69.34
66430;BME280;53242;51.694;10.006;2023-07-31T11:13:04;98773.59;;;20.89;68.89
66430;BME280;53242;51.694;10.006;2023-07-31T11:15:27;98772.22;;;20.92;69.07
66430;BME280;53242;51.694;10.006;2023-07-31T11:17:49;98764.44;;;21.25;68.34
66430;BME280;53242;51.694;10.006;2023-07-31T11:20:12;98772.88;;;21.42;66.83
66430;BME280;53242;51.694;10.006;2023-07-31T11:22:35;98761.91;;;21.68;66.92
66430;BME280;53242;51.694;10.006;2023-07-31T11:24:58;98768.50;;;22.00;66.41
66430;BME280;53242;51.694;10.006;2023-07-31T11:27:20;98756.63;;;21.58;66.95
66430;BME280;53242;51.694;10.006;2023-07-31T11:29:43;98764.88;;;21.37;67.62
66430;BME280;53242;51.694;10.006;2023-07-31T11:32:05;98745.38;;;21.26;67.67
66430;BME280;53242;51.694;10.006;2023-07-31T11:34:28;98756.94;;;21.27;67.87
66430;BME280;53242;51.694;10.006;2023-07-31T11:36:54;98751.06;;;20.90;68.00
66430;BME280;53242;51.694;10.006;2023-07-31T11:39:17;98763.50;;;20.76;67.73
66430;BME280;53242;51.694;10.006;2023-07-31T11:41:42;98756.09;;;20.97;68.25
66430;BME280;53242;51.694;10.006;2023-07-31T11:44:05;98755.06;;;21.22;67.72
66430;BME280;53242;51.694;10.006;2023-07-31T11:46:30;98744.69;;;20.81;67.65
66430;BME280;53242;51.694;10.006;2023-07-31T11:48:59;98742.56;;;20.83;67.65
66430;BME280;53242;51.694;10.006;2023-07-31T11:51:21;98746.63;;;21.05;67.58
66430;BME280;53242;51.694;10.006;2023-07-31T11:53:47;98750.34;;;21.14;67.93
66430;BME280;53242;51.694;10.006;2023-07-31T11:56:13;98744.09;;;20.89;67.90
66430;BME280;53242;51.694;10.006;2023-07-31T11:58:36;98735.34;;;20.78;67.89
66430;BME280;53242;51.694;10.006;2023-07-31T12:00:59;98740.81;;;20.97;66.52
66430;BME280;53242;51.694;10.006;2023-07-31T12:03:22;98738.22;;;20.87;67.31
66430;BME280;53242;51.694;10.006;2023-07-31T12:05:47;98738.03;;;20.78;67.39
66430;BME280;53242;51.694;10.006;2023-07-31T12:08:10;98736.00;;;20.60;68.86
66430;BME280;53242;51.694;10.006;2023-07-31T12:10:36;98736.44;;;20.72;69.36
66430;BME280;53242;51.694;10.006;2023-07-31T12:13:09;98734.34;;;20.64;69.69
66430;BME280;53242;51.694;10.006;2023-07-31T12:15:43;98731.91;;;20.67;70.50
66430;BME280;53242;51.694;10.006;2023-07-31T12:18:08;98735.63;;;20.77;69.51
66430;BME280;53242;51.694;10.006;2023-07-31T12:20:32;98730.41;;;20.91;69.06
66430;BME280;53242;51.694;10.006;2023-07-31T12:22:56;98737.34;;;20.57;68.69
66430;BME280;53242;51.694;10.006;2023-07-31T12:25:19;98732.94;;;20.77;67.78
66430;BME280;53242;51.694;10.006;2023-07-31T12:27:44;98746.78;;;20.89;67.56
66430;BME280;53242;51.694;10.006;2023-07-31T12:30:26;98742.22;;;20.90;66.86
66430;BME280;53242;51.694;10.006;2023-07-31T12:32:49;98731.25;;;20.86;66.87
66430;BME280;53242;51.694;10.006;2023-07-31T12:35:11;98736.88;;;21.19;66.40
66430;BME280;53242;51.694;10.006;2023-07-31T12:37:33;98729.72;;;21.63;66.60